Airfield :
LOGIN :

Register | Disclaimer

   EN    FR    IT 

 










Legend :    VFR   Marginal VFR   IFR   Intensive IFR   Very Intensive IFR
Visi :
Ceiling :
>= 8 km
>= 3000ft
5 to 8 km
1000 to 3000 ft
1500m to 5 km
500 to 1000 ft
800 to 1500m
200 to 500 ft
< 800m
< 200 ft
Symbols :   Thunderstorms  Fog  Heavy snow  Heavy precipitations  Wind > 20 kt
SIGMETs :     Misc.  Thunderstorms  Icing  Turbulence  Mountain Waves  Volcanic Ashes







- Airport Elevation : 7 ft
- IATA code : POW


LJPZ - Portoroz

CURRENT METAR :
  • 150030Z AUTO 16005KT 120V210 9999 BKN075/// 11/07 Q1001

EXPIRED METARs :
  • 150000Z AUTO 16003KT 9999 BKN070/// 09/07 Q1002
  • 142330Z AUTO 18002KT 9999 FEW036/// OVC070/// 10/07 Q1002
  • 142300Z AUTO 31001KT 7000 BKN065/// 07/06 Q1002
  • 142230Z AUTO VRB01KT 5000 FEW065/// 06/06 Q1003
  • 142200Z AUTO 00000KT 8000 OVC060/// 07/07 Q1003

TAF TAF LJPZ
Valid from the 15 at 00:00 until the 15 at 09:00 UTC


142300Z 1500/1509 14005KT 9999 FEW020 BKN040
TEMPO 1500/1509 5000 BR SCT040
No reported NOTAMs for that airfield.



MET'MAP, your aeronautical weather chart ! - Copyright ORBIFLY December 2007 - Disclaimer

ORBIFLY MET'MAP TEAM :

Programming & Development : Alexandra Zaïnal
Concept & Development : Baudouin d'Aumeries
Co-Development & Prog : Marc-Olivier Méhu
Technical & hardware support : Manuel Goepfert

Contact : metmap@orbifly.com




SOURCES & CREDITS :

   NOAA